sensor_id;sensor_type;location;lat;lon;timestamp;P1;P2;P0
76238;PMS7003;65043;48.392;-4.472;2023-10-19T06:40:48;7.00;4.25;1.25
76238;PMS7003;65043;48.392;-4.472;2023-10-19T06:43:13;7.25;3.00;2.00
76238;PMS7003;65043;48.392;-4.472;2023-10-19T06:45:43;6.75;3.75;1.00
76238;PMS7003;65043;48.392;-4.472;2023-10-19T06:48:10;4.75;2.00;1.00
76238;PMS7003;65043;48.392;-4.472;2023-10-19T06:50:36;6.25;4.00;1.50
76238;PMS7003;65043;48.392;-4.472;2023-10-19T06:53:04;9.25;6.50;3.00
76238;PMS7003;65043;48.392;-4.472;2023-10-19T06:55:30;5.75;4.00;1.00
76238;PMS7003;65043;48.392;-4.472;2023-10-19T06:57:58;7.25;4.50;2.00
76238;PMS7003;65043;48.392;-4.472;2023-10-19T07:00:27;14.00;5.75;2.25
76238;PMS7003;65043;48.392;-4.472;2023-10-19T07:02:54;11.75;5.50;2.00
76238;PMS7003;65043;48.392;-4.472;2023-10-19T07:05:24;12.50;4.25;2.75
76238;PMS7003;65043;48.392;-4.472;2023-10-19T07:07:53;6.00;3.25;2.00
76238;PMS7003;65043;48.392;-4.472;2023-10-19T07:10:29;8.25;4.50;3.00
76238;PMS7003;65043;48.392;-4.472;2023-10-19T07:12:55;4.25;3.00;1.50
76238;PMS7003;65043;48.392;-4.472;2023-10-19T07:15:23;8.25;4.25;1.25
76238;PMS7003;65043;48.392;-4.472;2023-10-19T07:17:53;7.25;4.00;2.00
76238;PMS7003;65043;48.392;-4.472;2023-10-19T07:20:21;6.75;4.75;1.00
76238;PMS7003;65043;48.392;-4.472;2023-10-19T07:22:58;10.00;2.25;2.00
76238;PMS7003;65043;48.392;-4.472;2023-10-19T07:25:31;9.50;4.50;2.00
76238;PMS7003;65043;48.392;-4.472;2023-10-19T07:28:07;6.00;3.50;1.00
76238;PMS7003;65043;48.392;-4.472;2023-10-19T07:30:37;3.00;0.25;0.00
76238;PMS7003;65043;48.392;-4.472;2023-10-19T07:33:06;7.75;2.25;0.00
76238;PMS7003;65043;48.392;-4.472;2023-10-19T07:35:36;7.50;2.50;1.00
76238;PMS7003;65043;48.392;-4.472;2023-10-19T07:38:25;14.75;2.50;1.00
76238;PMS7003;65043;48.392;-4.472;2023-10-19T07:41:21;9.75;4.00;2.00
76238;PMS7003;65043;48.392;-4.472;2023-10-19T07:43:50;6.00;4.00;1.75
76238;PMS7003;65043;48.392;-4.472;2023-10-19T07:46:20;5.50;3.50;2.00
76238;PMS7003;65043;48.392;-4.472;2023-10-19T07:48:57;11.75;8.00;2.50
76238;PMS7003;65043;48.392;-4.472;2023-10-19T07:51:30;7.00;6.25;2.25
76238;PMS7003;65043;48.392;-4.472;2023-10-19T07:54:04;12.25;4.50;2.25
76238;PMS7003;65043;48.392;-4.472;2023-10-19T07:56:53;8.00;7.00;2.25
76238;PMS7003;65043;48.392;-4.472;2023-10-19T07:59:33;10.75;6.25;2.00
76238;PMS7003;65043;48.392;-4.472;2023-10-19T08:02:10;12.00;5.50;1.75
76238;PMS7003;65043;48.392;-4.472;2023-10-19T08:04:41;8.75;4.00;2.00
76238;PMS7003;65043;48.392;-4.472;2023-10-19T08:07:15;5.75;2.50;1.00
76238;PMS7003;65043;48.392;-4.472;2023-10-19T08:12:30;10.00;6.50;1.75
76238;PMS7003;65043;48.392;-4.472;2023-10-19T08:15:18;7.50;3.75;1.75
76238;PMS7003;65043;48.392;-4.472;2023-10-19T08:17:56;10.25;5.00;1.25
76238;PMS7003;65043;48.392;-4.472;2023-10-19T08:20:23;7.50;3.75;1.75
76238;PMS7003;65043;48.392;-4.472;2023-10-19T08:22:54;4.00;3.00;1.00
76238;PMS7003;65043;48.392;-4.472;2023-10-19T08:25:30;7.50;4.50;2.00
76238;PMS7003;65043;48.392;-4.472;2023-10-19T08:28:06;11.75;6.50;2.00
76238;PMS7003;65043;48.392;-4.472;2023-10-19T08:30:40;10.25;7.00;4.00
76238;PMS7003;65043;48.392;-4.472;2023-10-19T08:33:24;10.50;5.75;1.75
76238;PMS7003;65043;48.392;-4.472;2023-10-19T08:36:06;6.75;5.50;3.00
76238;PMS7003;65043;48.392;-4.472;2023-10-19T08:38:41;9.25;5.00;3.00
76238;PMS7003;65043;48.392;-4.472;2023-10-19T08:41:09;8.50;6.75;1.75
76238;PMS7003;65043;48.392;-4.472;2023-10-19T08:43:34;7.00;4.00;1.25
76238;PMS7003;65043;48.392;-4.472;2023-10-19T08:46:04;3.50;1.75;0.00
76238;PMS7003;65043;48.392;-4.472;2023-10-19T08:48:39;11.00;8.00;3.00
76238;PMS7003;65043;48.392;-4.472;2023-10-19T08:51:13;12.75;4.25;2.00
76238;PMS7003;65043;48.392;-4.472;2023-10-19T08:53:42;11.00;4.00;1.50
76238;PMS7003;65043;48.392;-4.472;2023-10-19T08:56:09;10.50;4.75;2.75
76238;PMS7003;65043;48.392;-4.472;2023-10-19T08:58:37;8.25;5.25;1.00
76238;PMS7003;65043;48.392;-4.472;2023-10-19T09:01:12;11.00;6.00;2.00
76238;PMS7003;65043;48.392;-4.472;2023-10-19T09:03:56;7.75;3.50;1.00
76238;PMS7003;65043;48.392;-4.472;2023-10-19T09:06:22;9.00;3.75;2.00
76238;PMS7003;65043;48.392;-4.472;2023-10-19T09:08:48;6.75;4.00;2.75
76238;PMS7003;65043;48.392;-4.472;2023-10-19T09:11:14;10.75;3.50;2.00
76238;PMS7003;65043;48.392;-4.472;2023-10-19T09:13:44;8.25;4.75;2.00
76238;PMS7003;65043;48.392;-4.472;2023-10-19T09:16:16;12.25;5.75;1.75
76238;PMS7003;65043;48.392;-4.472;2023-10-19T09:18:43;4.50;4.25;1.00
76238;PMS7003;65043;48.392;-4.472;2023-10-19T09:21:10;9.50;5.75;1.00
76238;PMS7003;65043;48.392;-4.472;2023-10-19T09:23:46;9.00;6.00;3.00
76238;PMS7003;65043;48.392;-4.472;2023-10-19T09:26:12;7.50;2.50;0.50
76238;PMS7003;65043;48.392;-4.472;2023-10-19T09:28:38;4.75;3.50;1.00
76238;PMS7003;65043;48.392;-4.472;2023-10-19T09:31:05;6.75;4.75;2.50
76238;PMS7003;65043;48.392;-4.472;2023-10-19T09:33:34;5.50;4.25;1.00
76238;PMS7003;65043;48.392;-4.472;2023-10-19T09:36:03;6.75;5.00;3.00
76238;PMS7003;65043;48.392;-4.472;2023-10-19T09:38:30;7.25;5.50;2.00
76238;PMS7003;65043;48.392;-4.472;2023-10-19T09:40:56;10.50;5.25;2.25
76238;PMS7003;65043;48.392;-4.472;2023-10-19T09:43:33;3.25;3.00;1.25
76238;PMS7003;65043;48.392;-4.472;2023-10-19T09:46:09;7.00;5.75;1.00
76238;PMS7003;65043;48.392;-4.472;2023-10-19T09:48:40;9.00;4.25;2.00
76238;PMS7003;65043;48.392;-4.472;2023-10-19T09:51:18;7.25;4.75;1.25
76238;PMS7003;65043;48.392;-4.472;2023-10-19T09:54:13;6.25;4.00;2.00
76238;PMS7003;65043;48.392;-4.472;2023-10-19T09:56:53;10.50;4.75;1.25
76238;PMS7003;65043;48.392;-4.472;2023-10-19T09:59:33;9.00;4.00;1.00
76238;PMS7003;65043;48.392;-4.472;2023-10-19T10:04:30;10.00;6.00;2.75
76238;PMS7003;65043;48.392;-4.472;2023-10-19T10:06:57;4.00;2.00;1.00
76238;PMS7003;65043;48.392;-4.472;2023-10-19T10:09:25;10.25;7.25;2.00
76238;PMS7003;65043;48.392;-4.472;2023-10-19T10:11:55;9.75;5.50;1.75
76238;PMS7003;65043;48.392;-4.472;2023-10-19T10:14:27;3.75;3.75;0.00
76238;PMS7003;65043;48.392;-4.472;2023-10-19T10:17:07;11.75;6.75;1.75
76238;PMS7003;65043;48.392;-4.472;2023-10-19T10:19:43;9.50;5.00;2.00
76238;PMS7003;65043;48.392;-4.472;2023-10-19T10:22:10;13.75;4.50;1.00
76238;PMS7003;65043;48.392;-4.472;2023-10-19T10:24:42;7.00;5.50;1.25
76238;PMS7003;65043;48.392;-4.472;2023-10-19T10:27:08;5.25;3.25;1.00
76238;PMS7003;65043;48.392;-4.472;2023-10-19T10:29:53;9.25;4.50;1.00
76238;PMS7003;65043;48.392;-4.472;2023-10-19T10:32:47;5.25;3.25;1.00
76238;PMS7003;65043;48.392;-4.472;2023-10-19T10:38:05;7.00;3.75;1.25
76238;PMS7003;65043;48.392;-4.472;2023-10-19T10:40:42;6.00;5.50;2.00
76238;PMS7003;65043;48.392;-4.472;2023-10-19T10:43:17;7.25;2.75;1.00
76238;PMS7003;65043;48.392;-4.472;2023-10-19T10:45:44;9.25;6.25;1.50
76238;PMS7003;65043;48.392;-4.472;2023-10-19T10:48:13;5.00;2.75;1.00
76238;PMS7003;65043;48.392;-4.472;2023-10-19T10:50:38;6.75;5.50;2.00
76238;PMS7003;65043;48.392;-4.472;2023-10-19T10:53:06;7.50;2.50;1.00
76238;PMS7003;65043;48.392;-4.472;2023-10-19T10:55:32;10.00;4.00;1.00
76238;PMS7003;65043;48.392;-4.472;2023-10-19T10:57:58;3.25;2.75;1.00
76238;PMS7003;65043;48.392;-4.472;2023-10-19T11:00:24;5.50;3.00;1.00
76238;PMS7003;65043;48.392;-4.472;2023-10-19T11:02:59;8.00;3.25;2.00
76238;PMS7003;65043;48.392;-4.472;2023-10-19T11:05:26;6.50;2.25;1.00
76238;PMS7003;65043;48.392;-4.472;2023-10-19T11:08:02;5.25;2.75;1.00
76238;PMS7003;65043;48.392;-4.472;2023-10-19T11:10:46;8.00;5.75;2.00
76238;PMS7003;65043;48.392;-4.472;2023-10-19T11:13:12;3.00;2.75;1.00
76238;PMS7003;65043;48.392;-4.472;2023-10-19T11:15:46;8.75;3.25;1.00
76238;PMS7003;65043;48.392;-4.472;2023-10-19T11:18:27;7.75;5.50;0.25
76238;PMS7003;65043;48.392;-4.472;2023-10-19T11:21:01;5.25;2.25;1.00
76238;PMS7003;65043;48.392;-4.472;2023-10-19T11:23:48;3.75;3.25;1.75
76238;PMS7003;65043;48.392;-4.472;2023-10-19T11:26:16;6.25;3.25;1.25
76238;PMS7003;65043;48.392;-4.472;2023-10-19T11:28:46;8.00;3.50;1.00
76238;PMS7003;65043;48.392;-4.472;2023-10-19T11:31:16;11.00;5.50;1.00
76238;PMS7003;65043;48.392;-4.472;2023-10-19T11:33:47;11.00;4.25;1.00
76238;PMS7003;65043;48.392;-4.472;2023-10-19T11:36:14;6.25;3.75;1.75
76238;PMS7003;65043;48.392;-4.472;2023-10-19T11:38:44;8.75;3.00;1.50
76238;PMS7003;65043;48.392;-4.472;2023-10-19T11:41:12;10.75;3.50;2.00
76238;PMS7003;65043;48.392;-4.472;2023-10-19T11:43:42;15.00;6.00;1.50
76238;PMS7003;65043;48.392;-4.472;2023-10-19T11:46:09;6.50;4.75;2.00
76238;PMS7003;65043;48.392;-4.472;2023-10-19T11:48:37;12.25;8.00;2.75
76238;PMS7003;65043;48.392;-4.472;2023-10-19T11:51:04;8.50;6.50;2.00
76238;PMS7003;65043;48.392;-4.472;2023-10-19T11:53:35;8.50;6.25;2.50
76238;PMS7003;65043;48.392;-4.472;2023-10-19T11:56:02;11.50;4.00;2.00
76238;PMS7003;65043;48.392;-4.472;2023-10-19T11:58:29;6.00;2.50;2.00
76238;PMS7003;65043;48.392;-4.472;2023-10-19T12:01:03;12.75;8.00;2.25
76238;PMS7003;65043;48.392;-4.472;2023-10-19T12:03:33;11.25;7.25;2.75
76238;PMS7003;65043;48.392;-4.472;2023-10-19T12:06:03;7.50;4.00;2.00
76238;PMS7003;65043;48.392;-4.472;2023-10-19T12:08:31;4.00;3.00;0.75
76238;PMS7003;65043;48.392;-4.472;2023-10-19T12:10:58;10.50;1.00;0.50
76238;PMS7003;65043;48.392;-4.472;2023-10-19T12:13:23;12.50;5.25;3.00
76238;PMS7003;65043;48.392;-4.472;2023-10-19T12:15:49;16.25;8.50;2.75
76238;PMS7003;65043;48.392;-4.472;2023-10-19T12:18:19;11.75;7.75;3.00
76238;PMS7003;65043;48.392;-4.472;2023-10-19T12:20:45;3.75;3.75;1.00
76238;PMS7003;65043;48.392;-4.472;2023-10-19T12:23:12;6.50;3.25;1.50
76238;PMS7003;65043;48.392;-4.472;2023-10-19T12:25:38;9.25;3.75;1.50
76238;PMS7003;65043;48.392;-4.472;2023-10-19T12:28:04;3.75;3.25;2.50
76238;PMS7003;65043;48.392;-4.472;2023-10-19T12:30:29;6.25;3.25;2.00
76238;PMS7003;65043;48.392;-4.472;2023-10-19T12:33:02;7.00;3.75;1.50
76238;PMS7003;65043;48.392;-4.472;2023-10-19T12:35:33;8.00;5.50;2.00
76238;PMS7003;65043;48.392;-4.472;2023-10-19T12:38:24;7.50;4.25;2.00
76238;PMS7003;65043;48.392;-4.472;2023-10-19T12:40:50;5.25;3.00;1.25
76238;PMS7003;65043;48.392;-4.472;2023-10-19T12:43:16;4.50;3.25;1.00
76238;PMS7003;65043;48.392;-4.472;2023-10-19T12:45:51;7.50;3.50;1.00
76238;PMS7003;65043;48.392;-4.472;2023-10-19T12:48:22;4.25;2.50;1.00
76238;PMS7003;65043;48.392;-4.472;2023-10-19T12:50:55;5.25;3.50;0.75
76238;PMS7003;65043;48.392;-4.472;2023-10-19T12:53:20;7.25;3.75;1.75
76238;PMS7003;65043;48.392;-4.472;2023-10-19T12:55:49;2.50;1.50;1.25
76238;PMS7003;65043;48.392;-4.472;2023-10-19T12:58:15;8.00;2.75;2.75
76238;PMS7003;65043;48.392;-4.472;2023-10-19T13:00:44;5.75;4.00;0.75
76238;PMS7003;65043;48.392;-4.472;2023-10-19T13:03:10;5.50;2.75;0.25
76238;PMS7003;65043;48.392;-4.472;2023-10-19T13:05:39;2.75;1.00;1.00
76238;PMS7003;65043;48.392;-4.472;2023-10-19T13:08:10;7.25;3.75;1.00
76238;PMS7003;65043;48.392;-4.472;2023-10-19T13:10:40;9.75;4.75;1.25
76238;PMS7003;65043;48.392;-4.472;2023-10-19T13:13:08;7.00;5.25;2.25
76238;PMS7003;65043;48.392;-4.472;2023-10-19T13:15:41;9.75;4.00;1.25
76238;PMS7003;65043;48.392;-4.472;2023-10-19T13:18:09;8.00;4.50;2.25
76238;PMS7003;65043;48.392;-4.472;2023-10-19T13:20:36;6.25;3.25;2.00
76238;PMS7003;65043;48.392;-4.472;2023-10-19T13:23:03;8.50;4.25;1.25
76238;PMS7003;65043;48.392;-4.472;2023-10-19T13:25:36;4.25;4.00;1.00
76238;PMS7003;65043;48.392;-4.472;2023-10-19T13:28:18;5.00;2.25;0.50
76238;PMS7003;65043;48.392;-4.472;2023-10-19T13:30:50;6.25;3.00;0.25
76238;PMS7003;65043;48.392;-4.472;2023-10-19T13:33:18;2.00;2.00;0.50
76238;PMS7003;65043;48.392;-4.472;2023-10-19T13:35:49;3.00;3.00;1.00
76238;PMS7003;65043;48.392;-4.472;2023-10-19T13:38:16;3.50;2.25;0.50
76238;PMS7003;65043;48.392;-4.472;2023-10-19T13:40:42;3.00;2.25;1.00
76238;PMS7003;65043;48.392;-4.472;2023-10-19T13:43:09;1.50;1.00;0.00
76238;PMS7003;65043;48.392;-4.472;2023-10-19T13:45:39;4.50;1.75;0.00
76238;PMS7003;65043;48.392;-4.472;2023-10-19T13:48:07;1.75;1.75;1.00
76238;PMS7003;65043;48.392;-4.472;2023-10-19T13:50:34;3.75;3.00;1.00
76238;PMS7003;65043;48.392;-4.472;2023-10-19T13:53:01;3.75;2.50;1.00
76238;PMS7003;65043;48.392;-4.472;2023-10-19T13:55:30;2.25;2.25;0.50
76238;PMS7003;65043;48.392;-4.472;2023-10-19T13:57:56;2.50;1.00;1.00
76238;PMS7003;65043;48.392;-4.472;2023-10-19T14:00:22;7.00;2.75;1.00
76238;PMS7003;65043;48.392;-4.472;2023-10-19T14:02:50;3.50;1.75;1.25
76238;PMS7003;65043;48.392;-4.472;2023-10-19T14:05:17;5.75;2.75;1.00
76238;PMS7003;65043;48.392;-4.472;2023-10-19T14:07:49;7.25;2.00;1.00
76238;PMS7003;65043;48.392;-4.472;2023-10-19T14:10:15;4.25;2.50;1.00
76238;PMS7003;65043;48.392;-4.472;2023-10-19T14:12:41;4.00;2.00;0.00
76238;PMS7003;65043;48.392;-4.472;2023-10-19T14:15:12;2.00;1.00;1.00
76238;PMS7003;65043;48.392;-4.472;2023-10-19T14:17:40;2.25;2.00;1.00
76238;PMS7003;65043;48.392;-4.472;2023-10-19T14:20:09;3.25;2.50;1.00
76238;PMS7003;65043;48.392;-4.472;2023-10-19T14:22:38;6.00;2.50;0.50
76238;PMS7003;65043;48.392;-4.472;2023-10-19T14:25:04;1.75;1.50;0.00
76238;PMS7003;65043;48.392;-4.472;2023-10-19T14:27:33;3.75;1.75;1.00
76238;PMS7003;65043;48.392;-4.472;2023-10-19T14:30:04;6.75;3.25;1.00
76238;PMS7003;65043;48.392;-4.472;2023-10-19T14:32:30;2.25;1.75;0.75
76238;PMS7003;65043;48.392;-4.472;2023-10-19T14:34:55;2.50;1.75;0.75
76238;PMS7003;65043;48.392;-4.472;2023-10-19T14:37:21;14.50;6.25;2.00
76238;PMS7003;65043;48.392;-4.472;2023-10-19T14:39:49;11.50;5.25;2.00
76238;PMS7003;65043;48.392;-4.472;2023-10-19T14:42:15;4.25;2.25;1.00
76238;PMS7003;65043;48.392;-4.472;2023-10-19T14:44:40;3.75;2.00;0.75
76238;PMS7003;65043;48.392;-4.472;2023-10-19T14:47:06;3.50;3.00;0.00
76238;PMS7003;65043;48.392;-4.472;2023-10-19T14:49:31;5.75;3.00;1.00
76238;PMS7003;65043;48.392;-4.472;2023-10-19T14:51:59;6.50;5.00;2.00
76238;PMS7003;65043;48.392;-4.472;2023-10-19T14:54:25;4.25;2.00;1.00
76238;PMS7003;65043;48.392;-4.472;2023-10-19T14:56:51;10.00;4.00;1.00
76238;PMS7003;65043;48.392;-4.472;2023-10-19T14:59:18;5.75;3.00;1.50
76238;PMS7003;65043;48.392;-4.472;2023-10-19T15:01:46;5.00;2.75;1.00
76238;PMS7003;65043;48.392;-4.472;2023-10-19T15:04:13;7.75;3.75;0.75
76238;PMS7003;65043;48.392;-4.472;2023-10-19T15:06:41;4.25;2.25;1.25
76238;PMS7003;65043;48.392;-4.472;2023-10-19T15:09:09;6.00;3.75;1.00
76238;PMS7003;65043;48.392;-4.472;2023-10-19T15:11:39;7.50;4.00;2.00
76238;PMS7003;65043;48.392;-4.472;2023-10-19T15:14:08;2.25;2.00;1.75
76238;PMS7003;65043;48.392;-4.472;2023-10-19T15:16:36;8.25;2.00;1.00
76238;PMS7003;65043;48.392;-4.472;2023-10-19T15:19:02;7.00;3.25;1.25
76238;PMS7003;65043;48.392;-4.472;2023-10-19T15:21:32;5.25;2.25;0.00
76238;PMS7003;65043;48.392;-4.472;2023-10-19T15:23:58;2.25;1.00;0.00
76238;PMS7003;65043;48.392;-4.472;2023-10-19T15:26:30;2.75;1.00;0.75
76238;PMS7003;65043;48.392;-4.472;2023-10-19T15:28:56;3.00;1.25;0.00
76238;PMS7003;65043;48.392;-4.472;2023-10-19T15:31:21;4.00;0.50;0.00
76238;PMS7003;65043;48.392;-4.472;2023-10-19T15:33:54;3.50;2.00;0.75
76238;PMS7003;65043;48.392;-4.472;2023-10-19T15:36:25;4.00;1.00;0.00
76238;PMS7003;65043;48.392;-4.472;2023-10-19T15:38:51;1.00;0.25;0.00
76238;PMS7003;65043;48.392;-4.472;2023-10-19T15:41:17;4.50;2.50;2.00
76238;PMS7003;65043;48.392;-4.472;2023-10-19T15:43:42;3.50;2.00;0.50
76238;PMS7003;65043;48.392;-4.472;2023-10-19T15:46:08;6.75;2.00;0.00
76238;PMS7003;65043;48.392;-4.472;2023-10-19T15:48:40;3.75;1.25;0.00
76238;PMS7003;65043;48.392;-4.472;2023-10-19T15:51:06;5.00;1.75;0.00
76238;PMS7003;65043;48.392;-4.472;2023-10-19T15:53:34;3.50;1.75;0.00
76238;PMS7003;65043;48.392;-4.472;2023-10-19T15:56:01;2.00;0.75;0.00
76238;PMS7003;65043;48.392;-4.472;2023-10-19T15:58:31;6.25;3.25;0.75
76238;PMS7003;65043;48.392;-4.472;2023-10-19T16:09:46;32.25;22.75;11.50
76238;PMS7003;65043;48.392;-4.472;2023-10-19T16:15:18;27.75;18.25;13.00
76238;PMS7003;65043;48.392;-4.472;2023-10-19T16:18:06;15.75;9.25;5.25
76238;PMS7003;65043;48.392;-4.472;2023-10-19T16:20:32;6.50;4.50;1.00
76238;PMS7003;65043;48.392;-4.472;2023-10-19T16:22:58;5.75;3.00;1.00
76238;PMS7003;65043;48.392;-4.472;2023-10-19T16:25:24;6.00;2.50;1.00
76238;PMS7003;65043;48.392;-4.472;2023-10-19T16:27:49;6.00;2.25;1.00
76238;PMS7003;65043;48.392;-4.472;2023-10-19T16:30:15;2.25;2.00;0.00
76238;PMS7003;65043;48.392;-4.472;2023-10-19T16:32:44;1.00;0.75;0.00
76238;PMS7003;65043;48.392;-4.472;2023-10-19T16:35:10;2.50;0.00;0.00
76238;PMS7003;65043;48.392;-4.472;2023-10-19T16:37:36;4.50;1.00;0.00
76238;PMS7003;65043;48.392;-4.472;2023-10-19T16:40:04;3.00;1.75;1.00
76238;PMS7003;65043;48.392;-4.472;2023-10-19T16:42:30;1.00;1.00;0.00
76238;PMS7003;65043;48.392;-4.472;2023-10-19T16:44:58;1.25;0.25;0.00
76238;PMS7003;65043;48.392;-4.472;2023-10-19T16:47:24;1.75;1.75;1.00
76238;PMS7003;65043;48.392;-4.472;2023-10-19T16:49:50;2.25;1.00;0.00
76238;PMS7003;65043;48.392;-4.472;2023-10-19T16:52:15;3.00;3.00;0.50
76238;PMS7003;65043;48.392;-4.472;2023-10-19T16:54:41;3.00;2.00;0.00
76238;PMS7003;65043;48.392;-4.472;2023-10-19T16:57:06;3.00;3.00;1.00
76238;PMS7003;65043;48.392;-4.472;2023-10-19T16:59:32;1.00;1.00;0.25
76238;PMS7003;65043;48.392;-4.472;2023-10-19T17:01:57;2.75;1.50;0.00
76238;PMS7003;65043;48.392;-4.472;2023-10-19T17:04:23;1.75;0.75;0.00
76238;PMS7003;65043;48.392;-4.472;2023-10-19T17:06:50;3.25;3.25;1.00
76238;PMS7003;65043;48.392;-4.472;2023-10-19T17:09:20;4.25;2.50;1.00
76238;PMS7003;65043;48.392;-4.472;2023-10-19T17:11:47;4.00;2.00;1.00
76238;PMS7003;65043;48.392;-4.472;2023-10-19T17:14:17;4.00;2.00;0.00
76238;PMS7003;65043;48.392;-4.472;2023-10-19T17:16:43;1.75;1.00;0.00
76238;PMS7003;65043;48.392;-4.472;2023-10-19T17:19:09;0.75;0.25;0.00
76238;PMS7003;65043;48.392;-4.472;2023-10-19T17:21:36;1.75;1.75;0.00
76238;PMS7003;65043;48.392;-4.472;2023-10-19T17:24:05;2.25;1.00;0.00
76238;PMS7003;65043;48.392;-4.472;2023-10-19T17:26:31;1.75;1.75;0.00
76238;PMS7003;65043;48.392;-4.472;2023-10-19T17:28:56;5.25;0.75;0.00
76238;PMS7003;65043;48.392;-4.472;2023-10-19T17:31:23;1.25;1.25;0.00
76238;PMS7003;65043;48.392;-4.472;2023-10-19T17:33:50;3.00;2.00;0.00
76238;PMS7003;65043;48.392;-4.472;2023-10-19T17:36:28;0.75;0.25;0.00
76238;PMS7003;65043;48.392;-4.472;2023-10-19T17:38:56;3.50;1.75;0.00
76238;PMS7003;65043;48.392;-4.472;2023-10-19T17:41:22;2.00;2.00;1.00
76238;PMS7003;65043;48.392;-4.472;2023-10-19T17:43:51;1.75;1.50;0.00
76238;PMS7003;65043;48.392;-4.472;2023-10-19T17:46:16;1.00;1.00;0.00
76238;PMS7003;65043;48.392;-4.472;2023-10-19T17:48:50;2.00;1.00;0.50
76238;PMS7003;65043;48.392;-4.472;2023-10-19T17:51:26;0.25;0.25;0.00
76238;PMS7003;65043;48.392;-4.472;2023-10-19T17:54:05;1.75;1.00;0.00
76238;PMS7003;65043;48.392;-4.472;2023-10-19T17:56:37;1.00;1.00;0.00
76238;PMS7003;65043;48.392;-4.472;2023-10-19T17:59:07;5.00;0.75;0.00
76238;PMS7003;65043;48.392;-4.472;2023-10-19T18:01:43;20.00;16.00;8.00
76238;PMS7003;65043;48.392;-4.472;2023-10-19T18:04:10;84.00;62.00;36.75
76238;PMS7003;65043;48.392;-4.472;2023-10-19T18:06:36;92.25;74.50;41.50
76238;PMS7003;65043;48.392;-4.472;2023-10-19T18:09:22;34.00;29.50;17.75
76238;PMS7003;65043;48.392;-4.472;2023-10-19T18:11:49;43.25;28.25;19.00
76238;PMS7003;65043;48.392;-4.472;2023-10-19T18:14:18;14.00;12.75;6.75
76238;PMS7003;65043;48.392;-4.472;2023-10-19T18:16:46;3.25;3.25;1.00
76238;PMS7003;65043;48.392;-4.472;2023-10-19T18:19:16;8.25;4.00;2.00
76238;PMS7003;65043;48.392;-4.472;2023-10-19T18:21:47;6.50;4.25;2.75
76238;PMS7003;65043;48.392;-4.472;2023-10-19T18:24:21;7.50;2.00;0.25
76238;PMS7003;65043;48.392;-4.472;2023-10-19T18:59:53;3.50;0.00;0.00
76238;PMS7003;65043;48.392;-4.472;2023-10-19T19:02:56;1.00;1.00;0.50
76238;PMS7003;65043;48.392;-4.472;2023-10-19T19:06:22;2.25;0.75;0.00
76238;PMS7003;65043;48.392;-4.472;2023-10-19T19:08:54;2.75;1.25;0.00
76238;PMS7003;65043;48.392;-4.472;2023-10-19T19:11:19;9.75;4.75;2.00
76238;PMS7003;65043;48.392;-4.472;2023-10-19T19:13:45;50.75;40.00;23.75
76238;PMS7003;65043;48.392;-4.472;2023-10-19T19:16:12;34.25;23.75;14.50
76238;PMS7003;65043;48.392;-4.472;2023-10-19T19:18:38;66.75;51.50;31.50
76238;PMS7003;65043;48.392;-4.472;2023-10-19T19:27:36;8.25;4.25;2.00
76238;PMS7003;65043;48.392;-4.472;2023-10-19T19:30:02;12.00;6.75;3.00
76238;PMS7003;65043;48.392;-4.472;2023-10-19T19:32:31;5.25;4.25;2.00
76238;PMS7003;65043;48.392;-4.472;2023-10-19T19:34:56;3.25;2.00;1.00
76238;PMS7003;65043;48.392;-4.472;2023-10-19T19:37:23;2.25;2.25;1.00
76238;PMS7003;65043;48.392;-4.472;2023-10-19T19:39:49;1.75;1.75;1.00
76238;PMS7003;65043;48.392;-4.472;2023-10-19T19:42:14;2.00;0.75;0.00
76238;PMS7003;65043;48.392;-4.472;2023-10-19T19:44:40;2.75;2.75;0.50
76238;PMS7003;65043;48.392;-4.472;2023-10-19T19:47:07;7.75;7.25;4.00
76238;PMS7003;65043;48.392;-4.472;2023-10-19T19:49:32;5.50;2.00;1.00
76238;PMS7003;65043;48.392;-4.472;2023-10-19T19:51:58;6.25;3.50;1.00
76238;PMS7003;65043;48.392;-4.472;2023-10-19T19:54:26;1.50;0.50;0.00
76238;PMS7003;65043;48.392;-4.472;2023-10-19T19:56:52;1.50;1.00;0.00
76238;PMS7003;65043;48.392;-4.472;2023-10-19T19:59:18;1.00;1.00;0.00
76238;PMS7003;65043;48.392;-4.472;2023-10-19T20:01:44;3.50;0.00;0.00
76238;PMS7003;65043;48.392;-4.472;2023-10-19T20:04:12;1.50;1.50;0.50
76238;PMS7003;65043;48.392;-4.472;2023-10-19T20:06:38;6.25;1.00;0.00
76238;PMS7003;65043;48.392;-4.472;2023-10-19T20:09:04;3.25;2.25;0.00
76238;PMS7003;65043;48.392;-4.472;2023-10-19T20:11:36;1.50;1.50;0.75
76238;PMS7003;65043;48.392;-4.472;2023-10-19T20:14:02;2.00;2.00;0.00
76238;PMS7003;65043;48.392;-4.472;2023-10-19T20:16:28;2.00;1.00;0.00
76238;PMS7003;65043;48.392;-4.472;2023-10-19T20:18:55;2.25;2.25;1.00
76238;PMS7003;65043;48.392;-4.472;2023-10-19T20:21:21;9.00;6.00;3.50
76238;PMS7003;65043;48.392;-4.472;2023-10-19T20:23:46;2.50;2.00;1.00
76238;PMS7003;65043;48.392;-4.472;2023-10-19T20:26:12;2.25;2.00;1.00
76238;PMS7003;65043;48.392;-4.472;2023-10-19T20:28:39;3.00;1.75;1.00
76238;PMS7003;65043;48.392;-4.472;2023-10-19T20:31:05;3.25;0.50;0.00
76238;PMS7003;65043;48.392;-4.472;2023-10-19T20:33:30;3.50;3.00;0.25
76238;PMS7003;65043;48.392;-4.472;2023-10-19T20:35:56;2.75;1.25;0.00
76238;PMS7003;65043;48.392;-4.472;2023-10-19T20:38:22;6.00;4.00;1.25
76238;PMS7003;65043;48.392;-4.472;2023-10-19T20:40:48;3.00;3.00;2.00
76238;PMS7003;65043;48.392;-4.472;2023-10-19T20:43:16;3.25;2.25;1.25
76238;PMS7003;65043;48.392;-4.472;2023-10-19T20:45:44;4.75;2.50;1.00
76238;PMS7003;65043;48.392;-4.472;2023-10-19T20:48:13;1.00;0.50;0.50
76238;PMS7003;65043;48.392;-4.472;2023-10-19T20:50:42;2.00;2.00;1.00
76238;PMS7003;65043;48.392;-4.472;2023-10-19T20:53:10;3.00;1.00;0.25
76238;PMS7003;65043;48.392;-4.472;2023-10-19T20:55:36;4.00;3.00;0.75
76238;PMS7003;65043;48.392;-4.472;2023-10-19T20:58:02;5.50;2.75;0.25
76238;PMS7003;65043;48.392;-4.472;2023-10-19T21:00:28;2.00;0.75;0.00
76238;PMS7003;65043;48.392;-4.472;2023-10-19T21:02:53;1.00;1.00;1.00
76238;PMS7003;65043;48.392;-4.472;2023-10-19T21:05:19;2.00;2.00;0.00
76238;PMS7003;65043;48.392;-4.472;2023-10-19T21:07:45;1.00;1.00;0.75
76238;PMS7003;65043;48.392;-4.472;2023-10-19T21:10:11;2.25;0.75;0.50
76238;PMS7003;65043;48.392;-4.472;2023-10-19T21:12:39;3.50;1.50;0.00
76238;PMS7003;65043;48.392;-4.472;2023-10-19T21:15:08;2.00;2.00;1.50
76238;PMS7003;65043;48.392;-4.472;2023-10-19T21:17:39;4.25;1.75;0.25
76238;PMS7003;65043;48.392;-4.472;2023-10-19T21:20:08;3.00;1.00;0.00
76238;PMS7003;65043;48.392;-4.472;2023-10-19T21:22:34;3.50;0.00;0.00
76238;PMS7003;65043;48.392;-4.472;2023-10-19T21:25:01;3.00;1.75;0.75
76238;PMS7003;65043;48.392;-4.472;2023-10-19T21:27:27;2.00;1.00;0.50
76238;PMS7003;65043;48.392;-4.472;2023-10-19T21:29:53;6.50;1.50;0.00
76238;PMS7003;65043;48.392;-4.472;2023-10-19T21:32:21;40.75;26.00;15.75
76238;PMS7003;65043;48.392;-4.472;2023-10-19T21:34:46;42.75;34.00;19.50
76238;PMS7003;65043;48.392;-4.472;2023-10-19T21:37:12;20.25;16.00;9.00
76238;PMS7003;65043;48.392;-4.472;2023-10-19T21:39:37;5.75;5.50;4.00
76238;PMS7003;65043;48.392;-4.472;2023-10-19T21:42:02;3.00;3.00;2.00
76238;PMS7003;65043;48.392;-4.472;2023-10-19T21:44:28;4.00;4.00;1.00
76238;PMS7003;65043;48.392;-4.472;2023-10-19T21:46:53;4.25;2.00;1.00
76238;PMS7003;65043;48.392;-4.472;2023-10-19T21:49:19;3.00;3.00;1.00
76238;PMS7003;65043;48.392;-4.472;2023-10-19T21:51:47;5.00;1.75;0.00
76238;PMS7003;65043;48.392;-4.472;2023-10-19T21:54:13;1.50;1.50;0.00
76238;PMS7003;65043;48.392;-4.472;2023-10-19T21:56:39;0.00;0.00;0.00
76238;PMS7003;65043;48.392;-4.472;2023-10-19T21:59:04;1.75;1.75;1.00